^^
Station Historical Data
Daily Summary for January 22, 2017 Units:  Metric    English   Both
« Previous Day
Next Day »
Daily Weekly Monthly Yearly Custom
  High: Low: Average:
Temperature: -17.8 °C -20.1 °C -18.3 °C
Dew Point: -17.8 °C -20.6 °C -18.9 °C
Humidity: Humidity% 92% 92%
Wind Speed: 0km/h 0km/h 0km/h
Wind Gust: 0km/h - -
Wind- - WSW
Pressure: 0 hPa 34337.4 hPa -
Precipitation: 0 mm    
Historical Graphs
 
 
Tabular Data for January 22, 2017
Time Temperature Dew Point Pressure Wind Wind Speed Wind Gust Humidity Rainfall Rate (Hourly) solar Conditions
-17.8 °C -17.8 °C 0 hPa Calm     Humidity% 0 mm SoftwareType W/m2 Conditions
00:01 -20.1 °C -20.6 °C 34591.4 hPa Calm     93% 0 mm WeatherDisplay:10.37 W/m2 FEW
00:06 -19.9 °C -20.5 °C 34591.4 hPa Calm     93% 0 mm WeatherDisplay:10.37 W/m2 FEW
00:11 -19.9 °C -20.4 °C 34591.4 hPa Calm     93% 0 mm WeatherDisplay:10.37 W/m2 FEW
00:16 -19.8 °C -20.4 °C 34577.8 hPa Calm     93% 0 mm WeatherDisplay:10.37 W/m2 FEW
00:21 -19.8 °C -20.3 °C 34577.8 hPa Calm     93% 0 mm WeatherDisplay:10.37 W/m2 FEW
00:26 -19.8 °C -20.3 °C 34577.8 hPa Calm     93% 0 mm WeatherDisplay:10.37 W/m2 FEW
00:31 -19.7 °C -20.2 °C 34577.8 hPa South 1 km/h 6 km/h 93% 0 mm WeatherDisplay:10.37 W/m2 FEW
00:36 -19.6 °C -20.2 °C 34567.7 hPa Calm     92% 0 mm WeatherDisplay:10.37 W/m2 FEW
00:41 -19.5 °C -20.1 °C 34567.7 hPa Calm     92% 0 mm WeatherDisplay:10.37 W/m2 FEW
00:46 -19.3 °C -19.9 °C 34567.7 hPa Calm     92% 0 mm WeatherDisplay:10.37 W/m2 FEW
00:51 -19.3 °C -19.9 °C 34554.1 hPa Calm     92% 0 mm WeatherDisplay:10.37 W/m2 FEW
00:56 -19.2 °C -19.8 °C 34554.1 hPa Calm     92% 0 mm WeatherDisplay:10.37 W/m2 FEW
01:01 -19.1 °C -19.8 °C 34554.1 hPa Calm     92% 0 mm WeatherDisplay:10.37 W/m2 FEW
01:06 -19.1 °C -19.7 °C 34554.1 hPa Calm     92% 0 mm WeatherDisplay:10.37 W/m2 FEW
01:11 -18.9 °C -19.5 °C 34544 hPa Calm     92% 0 mm WeatherDisplay:10.37 W/m2 FEW
01:16 -18.7 °C -19.3 °C 34544 hPa Calm   3.1 km/h 92% 0 mm WeatherDisplay:10.37 W/m2 FEW
01:21 -18.6 °C -19.2 °C 34544 hPa Calm     92% 0 mm WeatherDisplay:10.37 W/m2 FEW
01:26 -18.6 °C -19.2 °C 34544 hPa Calm   2.6 km/h 92% 0 mm WeatherDisplay:10.37 W/m2 FEW
01:31 -18.6 °C -19.2 °C 34533.8 hPa Calm     92% 0 mm WeatherDisplay:10.37 W/m2 FEW
01:36 -18.6 °C -19.2 °C 34533.8 hPa Calm     92% 0 mm WeatherDisplay:10.37 W/m2 FEW
01:41 -18.6 °C -19.2 °C 34533.8 hPa Calm     92% 0 mm WeatherDisplay:10.37 W/m2 FEW
01:46 -18.6 °C -19.2 °C 34533.8 hPa Calm     92% 0 mm WeatherDisplay:10.37 W/m2 FEW
01:51 -18.6 °C -19.2 °C 34533.8 hPa Calm   6 km/h 92% 0 mm WeatherDisplay:10.37 W/m2 FEW
01:56 -18.6 °C -19.2 °C 34520.3 hPa West 0.3 km/h 11.9 km/h 92% 0 mm WeatherDisplay:10.37 W/m2 FEW
02:01 -18.6 °C -19.2 °C 34520.3 hPa Calm     92% 0 mm WeatherDisplay:10.37 W/m2 FEW
02:06 -18.5 °C -19.1 °C 34520.3 hPa Calm     92% 0 mm WeatherDisplay:10.37 W/m2 FEW
02:11 -18.5 °C -19.1 °C 34520.3 hPa WNW 0.3 km/h 3.1 km/h 92% 0 mm WeatherDisplay:10.37 W/m2 FEW
02:16 -18.4 °C -19.1 °C 34520.3 hPa Calm   9 km/h 92% 0 mm WeatherDisplay:10.37 W/m2 FEW
02:21 -18.2 °C -18.8 °C 34510.1 hPa Calm   2.6 km/h 92% 0 mm WeatherDisplay:10.37 W/m2 FEW
02:26 -18.2 °C -18.8 °C 34520.3 hPa Calm     92% 0 mm WeatherDisplay:10.37 W/m2 FEW
02:31 -18.2 °C -18.8 °C 34520.3 hPa Calm     92% 0 mm WeatherDisplay:10.37 W/m2 FEW
02:36 -18.3 °C -18.9 °C 34510.1 hPa Calm     92% 0 mm WeatherDisplay:10.37 W/m2 FEW
02:41 -18.3 °C -18.9 °C 34510.1 hPa Calm     92% 0 mm WeatherDisplay:10.37 W/m2 FEW
02:46 -18.3 °C -18.9 °C 34510.1 hPa Calm     92% 0 mm WeatherDisplay:10.37 W/m2 FEW
02:51 -18.4 °C -19 °C 34510.1 hPa Calm     92% 0 mm WeatherDisplay:10.37 W/m2 FEW
02:56 -18.4 °C -19 °C 34510.1 hPa Calm     92% 0 mm WeatherDisplay:10.37 W/m2 FEW
03:01 -18.4 °C -19.1 °C 34496.6 hPa Calm     92% 0 mm WeatherDisplay:10.37 W/m2 FEW
03:06 -18.6 °C -19.1 °C 34496.6 hPa WNW 0.3 km/h 3.1 km/h 93% 0 mm WeatherDisplay:10.37 W/m2 FEW
03:11 -18.7 °C -19.3 °C 34496.6 hPa Calm     92% 0 mm WeatherDisplay:10.37 W/m2 FEW
03:16 -18.6 °C -19.2 °C 34496.6 hPa Calm     92% 0 mm WeatherDisplay:10.37 W/m2 FEW
03:21 -18.6 °C -19.2 °C 34510.1 hPa WSW 0.8 km/h   92% 0 mm WeatherDisplay:10.37 W/m2 FEW
03:26 -18.6 °C -19.2 °C 34510.1 hPa Calm     92% 0 mm WeatherDisplay:10.37 W/m2 FEW
03:31 -18.6 °C -19.2 °C 34510.1 hPa Calm     92% 0 mm WeatherDisplay:10.37 W/m2 FEW
03:36 -18.6 °C -19.2 °C 34510.1 hPa WSW 2.6 km/h 9 km/h 92% 0 mm WeatherDisplay:10.37 W/m2 FEW
03:41 -18.5 °C -19.1 °C 34496.6 hPa Calm     92% 0 mm WeatherDisplay:10.37 W/m2 FEW
03:46 -18.4 °C -19.1 °C 34496.6 hPa Calm     92% 0 mm WeatherDisplay:10.37 W/m2 FEW
03:51 -18.4 °C -19.1 °C 34496.6 hPa Calm     92% 0 mm WeatherDisplay:10.37 W/m2 FEW
03:56 -18.4 °C -19.1 °C 34496.6 hPa Calm     92% 0 mm WeatherDisplay:10.37 W/m2 FEW
04:01 -18.4 °C -19.1 °C 34486.4 hPa Calm     92% 0 mm WeatherDisplay:10.37 W/m2 FEW
04:06 -18.5 °C -19.1 °C 34486.4 hPa Calm     92% 0 mm WeatherDisplay:10.37 W/m2 FEW
04:11 -18.6 °C -19.2 °C 34486.4 hPa Calm     92% 0 mm WeatherDisplay:10.37 W/m2 FEW
04:16 -18.6 °C -19.2 °C 34486.4 hPa Calm     92% 0 mm WeatherDisplay:10.37 W/m2 FEW
04:21 -18.7 °C -19.3 °C 34486.4 hPa Calm     92% 0 mm WeatherDisplay:10.37 W/m2 FEW
04:26 -18.7 °C -19.3 °C 34486.4 hPa Calm     92% 0 mm WeatherDisplay:10.37 W/m2 FEW
04:31 -18.8 °C -19.3 °C 34486.4 hPa Calm     93% 0 mm WeatherDisplay:10.37 W/m2 FEW
04:36 -18.8 °C -19.4 °C 34476.3 hPa Calm     92% 0 mm WeatherDisplay:10.37 W/m2 FEW
04:41 -18.8 °C -19.4 °C 34486.4 hPa Calm     92% 0 mm WeatherDisplay:10.37 W/m2 FEW
04:46 -18.8 °C -19.4 °C 34476.3 hPa Calm     92% 0 mm WeatherDisplay:10.37 W/m2 FEW
04:51 -18.6 °C -19.2 °C 34476.3 hPa Calm     92% 0 mm WeatherDisplay:10.37 W/m2 FEW
04:56 -18.6 °C -19.2 °C 34476.3 hPa Calm     92% 0 mm WeatherDisplay:10.37 W/m2 FEW
04:59 -18.6 °C -19.2 °C 34476.3 hPa Calm     92% 0 mm WeatherDisplay:10.37 W/m2 FEW
05:04 -18.7 °C -19.3 °C 34476.3 hPa Calm     92% 0 mm WeatherDisplay:10.37 W/m2 FEW
05:09 -18.7 °C -19.3 °C 34476.3 hPa Calm     92% 0 mm WeatherDisplay:10.37 W/m2 FEW
05:14 -18.6 °C -19.2 °C 34476.3 hPa Calm     92% 0 mm WeatherDisplay:10.37 W/m2 FEW
05:19 -18.5 °C -19.1 °C 34476.3 hPa Calm   3.1 km/h 92% 0 mm WeatherDisplay:10.37 W/m2 FEW
05:24 -18.5 °C -19.1 °C 34476.3 hPa Calm     92% 0 mm WeatherDisplay:10.37 W/m2 FEW
05:29 -18.5 °C -19.1 °C 34476.3 hPa Calm     92% 0 mm WeatherDisplay:10.37 W/m2 FEW
05:34 -18.5 °C -19.1 °C 34476.3 hPa Calm     92% 0 mm WeatherDisplay:10.37 W/m2 FEW
05:39 -18.5 °C -19.1 °C 34476.3 hPa Calm     92% 0 mm WeatherDisplay:10.37 W/m2 FEW
05:44 -18.5 °C -19.1 °C 34476.3 hPa WSW 0.8 km/h 7.7 km/h 92% 0 mm WeatherDisplay:10.37 W/m2 FEW
05:49 -18.4 °C -19 °C 34462.7 hPa Calm     92% 0 mm WeatherDisplay:10.37 W/m2 FEW
05:54 -18.4 °C -19.1 °C 34462.7 hPa Calm     92% 0 mm WeatherDisplay:10.37 W/m2 FEW
05:59 -18.4 °C -19.1 °C 34462.7 hPa NNE 0.3 km/h   92% 0 mm WeatherDisplay:10.37 W/m2 FEW
06:04 -18.4 °C -19 °C 34462.7 hPa Calm     92% 0 mm WeatherDisplay:10.37 W/m2 FEW
06:09 -18.4 °C -19 °C 34462.7 hPa Calm     92% 0 mm WeatherDisplay:10.37 W/m2 FEW
06:14 -18.3 °C -18.9 °C 34462.7 hPa Calm     92% 0 mm WeatherDisplay:10.37 W/m2 FEW
06:19 -18.3 °C -18.9 °C 34462.7 hPa Calm     92% 0 mm WeatherDisplay:10.37 W/m2 FEW
06:24 -18.3 °C -18.9 °C 34462.7 hPa Calm     92% 0 mm WeatherDisplay:10.37 W/m2 FEW
06:29 -18.4 °C -19 °C 34462.7 hPa Calm     92% 0 mm WeatherDisplay:10.37 W/m2 FEW
06:34 -18.3 °C -18.9 °C 34452.6 hPa Calm     92% 0 mm WeatherDisplay:10.37 W/m2 FEW
06:39 -18.4 °C -19 °C 34452.6 hPa Calm     92% 0 mm WeatherDisplay:10.37 W/m2 FEW
06:44 -18.4 °C -19 °C 34462.7 hPa Calm   3.1 km/h 92% 0 mm WeatherDisplay:10.37 W/m2 FEW
06:49 -18.4 °C -19 °C 34462.7 hPa WSW 0.3 km/h 6 km/h 92% 0 mm WeatherDisplay:10.37 W/m2 FEW
06:54 -18.4 °C -19 °C 34462.7 hPa Calm     92% 0 mm WeatherDisplay:10.37 W/m2 FEW
06:59 -18.4 °C -19 °C 34462.7 hPa West 0.8 km/h   92% 0 mm WeatherDisplay:10.37 W/m2 FEW
07:04 -18.4 °C -19 °C 34462.7 hPa Calm     92% 0 mm WeatherDisplay:10.37 W/m2 FEW
07:09 -18.4 °C -19 °C 34462.7 hPa Calm     92% 0 mm WeatherDisplay:10.37 W/m2 FEW
07:14 -18.4 °C -19 °C 34462.7 hPa Calm   3.1 km/h 92% 0 mm WeatherDisplay:10.37 W/m2 FEW
07:19 -18.4 °C -19 °C 34462.7 hPa Calm   3.1 km/h 92% 0 mm WeatherDisplay:10.37 W/m2 FEW
07:24 -18.4 °C -19 °C 34462.7 hPa Calm     92% 0 mm WeatherDisplay:10.37 W/m2 FEW
07:29 -18.4 °C -19 °C 34452.6 hPa Calm     92% 0 mm WeatherDisplay:10.37 W/m2 FEW
07:34 -18.4 °C -19.1 °C 34452.6 hPa Calm     92% 0 mm WeatherDisplay:10.37 W/m2 FEW
07:39 -18.5 °C -19.1 °C 34462.7 hPa Calm     92% 0 mm WeatherDisplay:10.37 W/m2 FEW
07:44 -18.6 °C -19.2 °C 34452.6 hPa Calm     92% 0 mm WeatherDisplay:10.37 W/m2 FEW
07:49 -18.6 °C -19.2 °C 34462.7 hPa Calm   6 km/h 92% 0 mm WeatherDisplay:10.37 W/m2 FEW
07:54 -18.6 °C -19.2 °C 34462.7 hPa Calm     92% 0 mm WeatherDisplay:10.37 W/m2 FEW
07:59 -18.6 °C -19.2 °C 34462.7 hPa Calm     92% 0 mm WeatherDisplay:10.37 W/m2 FEW
08:04 -18.7 °C -19.3 °C 34462.7 hPa Calm     92% 0 mm WeatherDisplay:10.37 W/m2 FEW
08:09 -18.6 °C -19.2 °C 34462.7 hPa Calm   3.1 km/h 92% 0 mm WeatherDisplay:10.37 W/m2 FEW
08:14 -18.6 °C -19.2 °C 34462.7 hPa Calm     92% 0 mm WeatherDisplay:10.37 W/m2 FEW
08:20 -18.6 °C -19.2 °C 34462.7 hPa Calm     92% 0 mm WeatherDisplay:10.37 W/m2 FEW
08:25 -18.6 °C -19.2 °C 34462.7 hPa Calm     92% 0 mm WeatherDisplay:10.37 W/m2 FEW
08:30 -18.6 °C -19.2 °C 34462.7 hPa WSW 1.6 km/h 7.7 km/h 92% 0 mm WeatherDisplay:10.37 W/m2 FEW
08:35 -18.6 °C -19.2 °C 34462.7 hPa Calm     92% 0 mm WeatherDisplay:10.37 W/m2 FEW
08:40 -18.6 °C -19.2 °C 34462.7 hPa Calm     92% 0 mm WeatherDisplay:10.37 W/m2 FEW
08:45 -18.7 °C -19.3 °C 34462.7 hPa Calm     92% 0 mm WeatherDisplay:10.37 W/m2 FEW
08:50 -18.7 °C -19.3 °C 34462.7 hPa Calm     92% 0 mm WeatherDisplay:10.37 W/m2 FEW
08:55 -18.7 °C -19.3 °C 34462.7 hPa Calm     92% 0 mm WeatherDisplay:10.37 W/m2 FEW
09:00 -18.7 °C -19.3 °C 34462.7 hPa Calm     92% 0 mm WeatherDisplay:10.37 W/m2 FEW
09:05 -18.7 °C -19.3 °C 34452.6 hPa Calm     92% 0 mm WeatherDisplay:10.37 W/m2 FEW
09:10 -18.8 °C -19.4 °C 34462.7 hPa Calm     92% 0 mm WeatherDisplay:10.37 W/m2 FEW
09:15 -18.7 °C -19.3 °C 34462.7 hPa Calm     92% 0 mm WeatherDisplay:10.37 W/m2 FEW
09:20 -18.7 °C -19.3 °C 34462.7 hPa Calm     92% 0 mm WeatherDisplay:10.37 W/m2 FEW
09:25 -18.8 °C -19.4 °C 34462.7 hPa Calm     92% 0 mm WeatherDisplay:10.37 W/m2 FEW
09:30 -18.7 °C -19.3 °C 34462.7 hPa Calm     92% 0 mm WeatherDisplay:10.37 W/m2 FEW
09:35 -18.7 °C -19.3 °C 34462.7 hPa Calm     92% 0 mm WeatherDisplay:10.37 W/m2 FEW
09:40 -18.7 °C -19.3 °C 34462.7 hPa Calm     92% 0 mm WeatherDisplay:10.37 W/m2 FEW
09:45 -18.7 °C -19.3 °C 34462.7 hPa Calm     92% 0 mm WeatherDisplay:10.37 W/m2 FEW
09:50 -18.7 °C -19.3 °C 34462.7 hPa Calm   3.1 km/h 92% 0 mm WeatherDisplay:10.37 W/m2 FEW
09:55 -18.7 °C -19.3 °C 34462.7 hPa Calm     92% 0 mm WeatherDisplay:10.37 W/m2 FEW
10:00 -18.7 °C -19.3 °C 34462.7 hPa Calm     92% 0 mm WeatherDisplay:10.37 W/m2 FEW
10:05 -18.7 °C -19.3 °C 34462.7 hPa Calm     92% 0 mm WeatherDisplay:10.37 W/m2 FEW
10:10 -18.7 °C -19.3 °C 34462.7 hPa Calm     92% 0 mm WeatherDisplay:10.37 W/m2 FEW
10:15 -18.7 °C -19.3 °C 34462.7 hPa Calm     92% 0 mm WeatherDisplay:10.37 W/m2 FEW
10:20 -18.7 °C -19.3 °C 34462.7 hPa Calm     92% 0 mm WeatherDisplay:10.37 W/m2 FEW
10:25 -18.6 °C -19.2 °C 34462.7 hPa Calm     92% 0 mm WeatherDisplay:10.37 W/m2 FEW
10:30 -18.5 °C -19.1 °C 34462.7 hPa Calm     92% 0 mm WeatherDisplay:10.37 W/m2 FEW
10:35 -18.4 °C -19.1 °C 34462.7 hPa Calm     92% 0 mm WeatherDisplay:10.37 W/m2 FEW
10:45 -18.3 °C -18.9 °C 34452.6 hPa Calm     92% 0 mm WeatherDisplay:10.37 W/m2 FEW
10:50 -18.2 °C -18.8 °C 34452.6 hPa WSW 1 km/h 9 km/h 92% 0 mm WeatherDisplay:10.37 W/m2 FEW
10:55 -18.1 °C -18.7 °C 34452.6 hPa WSW 0.3 km/h 3.1 km/h 92% 0 mm WeatherDisplay:10.37 W/m2 FEW
11:00 -18.1 °C -18.7 °C 34452.6 hPa Calm     92% 0 mm WeatherDisplay:10.37 W/m2 FEW
11:05 -18 °C -18.7 °C 34452.6 hPa Calm     92% 0 mm WeatherDisplay:10.37 W/m2 FEW
11:10 -18 °C -18.7 °C 34452.6 hPa Calm     92% 0 mm WeatherDisplay:10.37 W/m2 FEW
11:15 -18 °C -18.7 °C 34452.6 hPa Calm     92% 0 mm WeatherDisplay:10.37 W/m2 FEW
11:20 -17.9 °C -18.6 °C 34452.6 hPa Calm     92% 0 mm WeatherDisplay:10.37 W/m2 FEW
11:25 -17.9 °C -18.6 °C 34452.6 hPa Calm     92% 0 mm WeatherDisplay:10.37 W/m2 FEW
11:30 -17.9 °C -18.5 °C 34452.6 hPa Calm     92% 0 mm WeatherDisplay:10.37 W/m2 FEW
11:35 -17.9 °C -18.5 °C 34452.6 hPa Calm     92% 0 mm WeatherDisplay:10.37 W/m2 FEW
11:40 -17.8 °C -18.4 °C 34452.6 hPa Calm     92% 0 mm WeatherDisplay:10.37 W/m2 FEW
11:45 -17.7 °C -18.4 °C 34452.6 hPa Calm     92% 0 mm WeatherDisplay:10.37 W/m2 FEW
11:50 -17.7 °C -18.3 °C 34452.6 hPa WSW 0.3 km/h 3.1 km/h 92% 0 mm WeatherDisplay:10.37 W/m2 FEW
11:55 -17.7 °C -18.3 °C 34452.6 hPa Calm   3.1 km/h 92% 0 mm WeatherDisplay:10.37 W/m2 FEW
12:00 -17.6 °C -18.3 °C 34452.6 hPa Calm     92% 0 mm WeatherDisplay:10.37 W/m2 FEW
12:05 -17.5 °C -18.2 °C 34452.6 hPa Calm     92% 0 mm WeatherDisplay:10.37 W/m2 FEW
12:10 -17.4 °C -18.1 °C 34452.6 hPa Calm   3.1 km/h 92% 0 mm WeatherDisplay:10.37 W/m2 FEW
12:15 -17.3 °C -18 °C 34452.6 hPa Calm   3.1 km/h 92% 0 mm WeatherDisplay:10.37 W/m2 FEW
12:20 -17.3 °C -17.9 °C 34442.4 hPa Calm     92% 0 mm WeatherDisplay:10.37 W/m2 FEW
12:25 -17.3 °C -17.9 °C 34442.4 hPa Calm     92% 0 mm WeatherDisplay:10.37 W/m2 FEW
12:30 -17.3 °C -17.9 °C 34442.4 hPa Calm     92% 0 mm WeatherDisplay:10.37 W/m2 FEW
12:35 -17.3 °C -17.9 °C 34428.8 hPa NW 0.3 km/h   92% 0 mm WeatherDisplay:10.37 W/m2 FEW
12:40 -17.2 °C -17.9 °C 34428.8 hPa SW 0.8 km/h 2.6 km/h 92% 0 mm WeatherDisplay:10.37 W/m2 FEW
12:45 -17.2 °C -17.8 °C 34428.8 hPa Calm     92% 0 mm WeatherDisplay:10.37 W/m2 FEW
12:50 -17.2 °C -17.8 °C 34428.8 hPa SW 0.5 km/h   92% 0 mm WeatherDisplay:10.37 W/m2 FEW
12:55 -17.2 °C -17.8 °C 34428.8 hPa Calm     92% 0 mm WeatherDisplay:10.37 W/m2 FEW
13:00 -17.2 °C -17.8 °C 34428.8 hPa Calm     92% 0 mm WeatherDisplay:10.37 W/m2 FEW
13:05 -17.2 °C -17.8 °C 34428.8 hPa Calm     92% 0 mm WeatherDisplay:10.37 W/m2 FEW
13:10 -17.2 °C -17.9 °C 34428.8 hPa Calm     92% 0 mm WeatherDisplay:10.37 W/m2 FEW
13:15 -17.3 °C -17.9 °C 34428.8 hPa Calm     92% 0 mm WeatherDisplay:10.37 W/m2 FEW
13:20 -17.3 °C -17.9 °C 34428.8 hPa West 0.5 km/h 6 km/h 92% 0 mm WeatherDisplay:10.37 W/m2 FEW
13:25 -17.2 °C -17.9 °C 34428.8 hPa Calm     92% 0 mm WeatherDisplay:10.37 W/m2 FEW
13:30 -17.2 °C -17.8 °C 34428.8 hPa Calm     92% 0 mm WeatherDisplay:10.37 W/m2 FEW
13:35 -17.2 °C -17.8 °C 34418.7 hPa Calm   3.1 km/h 92% 0 mm WeatherDisplay:10.37 W/m2 FEW
13:40 -17.1 °C -17.8 °C 34418.7 hPa Calm     92% 0 mm WeatherDisplay:10.37 W/m2 FEW
13:45 -17.1 °C -17.7 °C 34418.7 hPa Calm   6 km/h 92% 0 mm WeatherDisplay:10.37 W/m2 FEW
13:50 -17.1 °C -17.7 °C 34418.7 hPa Calm   2.6 km/h 92% 0 mm WeatherDisplay:10.37 W/m2 FEW
13:55 -17.1 °C -17.7 °C 34418.7 hPa Calm   3.1 km/h 92% 0 mm WeatherDisplay:10.37 W/m2 FEW
14:00 -17.1 °C -17.7 °C 34418.7 hPa Calm     92% 0 mm WeatherDisplay:10.37 W/m2 FEW
14:05 -17.1 °C -17.7 °C 34405.1 hPa West 1 km/h 9 km/h 92% 0 mm WeatherDisplay:10.37 W/m2 FEW
14:10 -17.1 °C -17.7 °C 34405.1 hPa Calm     92% 0 mm WeatherDisplay:10.37 W/m2 FEW
14:15 -17.1 °C -17.7 °C 34405.1 hPa Calm     92% 0 mm WeatherDisplay:10.37 W/m2 FEW
14:20 -17.1 °C -17.7 °C 34405.1 hPa Calm     92% 0 mm WeatherDisplay:10.37 W/m2 FEW
14:25 -17.2 °C -17.8 °C 34405.1 hPa Calm     92% 0 mm WeatherDisplay:10.37 W/m2 FEW
14:30 -17.2 °C -17.8 °C 34405.1 hPa Calm     92% 0 mm WeatherDisplay:10.37 W/m2 FEW
14:35 -17.3 °C -17.9 °C 34405.1 hPa Calm     92% 0 mm WeatherDisplay:10.37 W/m2 FEW
14:40 -17.3 °C -17.9 °C 34405.1 hPa Calm     92% 0 mm WeatherDisplay:10.37 W/m2 FEW
14:45 -17.3 °C -17.9 °C 34405.1 hPa Calm     93% 0 mm WeatherDisplay:10.37 W/m2 FEW
14:50 -17.3 °C -18 °C 34405.1 hPa Calm     92% 0 mm WeatherDisplay:10.37 W/m2 FEW
14:55 -17.4 °C -18 °C 34405.1 hPa Calm     92% 0 mm WeatherDisplay:10.37 W/m2 FEW
15:00 -17.4 °C -18 °C 34405.1 hPa Calm     92% 0 mm WeatherDisplay:10.37 W/m2 FEW
15:05 -17.4 °C -18.1 °C 34405.1 hPa Calm     92% 0 mm WeatherDisplay:10.37 W/m2 FEW
15:10 -17.4 °C -18.1 °C 34405.1 hPa Calm     92% 0 mm WeatherDisplay:10.37 W/m2 FEW
15:15 -17.4 °C -18 °C 34395 hPa Calm     93% 0 mm WeatherDisplay:10.37 W/m2 FEW
15:20 -17.5 °C -18.1 °C 34395 hPa Calm     93% 0 mm WeatherDisplay:10.37 W/m2 FEW
15:25 -17.6 °C -18.2 °C 34395 hPa Calm     92% 0 mm WeatherDisplay:10.37 W/m2 FEW
15:30 -17.6 °C -18.2 °C 34395 hPa Calm     92% 0 mm WeatherDisplay:10.37 W/m2 FEW
15:35 -17.7 °C -18.2 °C 34395 hPa Calm     93% 0 mm WeatherDisplay:10.37 W/m2 FEW
15:40 -17.7 °C -18.3 °C 34395 hPa Calm     92% 0 mm WeatherDisplay:10.37 W/m2 FEW
15:45 -17.7 °C -18.4 °C 34395 hPa Calm     92% 0 mm WeatherDisplay:10.37 W/m2 FEW
15:50 -17.8 °C -18.3 °C 34395 hPa Calm     93% 0 mm WeatherDisplay:10.37 W/m2 FEW
15:55 -17.8 °C -18.4 °C 34395 hPa Calm     93% 0 mm WeatherDisplay:10.37 W/m2 FEW
16:00 -17.9 °C -18.5 °C 34395 hPa Calm     92% 0 mm WeatherDisplay:10.37 W/m2 FEW
16:05 -17.9 °C -18.6 °C 34395 hPa Calm     92% 0 mm WeatherDisplay:10.37 W/m2 FEW
16:10 -17.9 °C -18.6 °C 34395 hPa Calm     92% 0 mm WeatherDisplay:10.37 W/m2 FEW
16:15 -17.9 °C -18.5 °C 34395 hPa Calm     93% 0 mm WeatherDisplay:10.37 W/m2 FEW
16:20 -18 °C -18.6 °C 34395 hPa Calm     93% 0 mm WeatherDisplay:10.37 W/m2 FEW
16:25 -18 °C -18.6 °C 34384.8 hPa Calm     93% 0 mm WeatherDisplay:10.37 W/m2 FEW
16:30 -18.1 °C -18.7 °C 34384.8 hPa Calm     92% 0 mm WeatherDisplay:10.37 W/m2 FEW
16:35 -18.1 °C -18.7 °C 34395 hPa Calm     92% 0 mm WeatherDisplay:10.37 W/m2 FEW
16:40 -18.1 °C -18.7 °C 34395 hPa Calm     92% 0 mm WeatherDisplay:10.37 W/m2 FEW
16:45 -18.1 °C -18.7 °C 34395 hPa Calm     92% 0 mm WeatherDisplay:10.37 W/m2 FEW
16:50 -18.1 °C -18.7 °C 34395 hPa Calm     92% 0 mm WeatherDisplay:10.37 W/m2 FEW
16:55 -18.1 °C -18.7 °C 34395 hPa Calm     92% 0 mm WeatherDisplay:10.37 W/m2 FEW
17:00 -18.1 °C -18.7 °C 34395 hPa Calm     92% 0 mm WeatherDisplay:10.37 W/m2 FEW
17:05 -18.1 °C -18.7 °C 34395 hPa Calm     92% 0 mm WeatherDisplay:10.37 W/m2 FEW
17:10 -18.1 °C -18.7 °C 34395 hPa Calm     92% 0 mm WeatherDisplay:10.37 W/m2 FEW
17:15 -18.1 °C -18.7 °C 34395 hPa Calm     92% 0 mm WeatherDisplay:10.37 W/m2 FEW
17:20 -18.1 °C -18.7 °C 34384.8 hPa Calm     92% 0 mm WeatherDisplay:10.37 W/m2 FEW
17:25 -18.1 °C -18.7 °C 34384.8 hPa West 2.9 km/h 9 km/h 92% 0 mm WeatherDisplay:10.37 W/m2 FEW
17:30 -17.9 °C -18.6 °C 34384.8 hPa Calm     92% 0 mm WeatherDisplay:10.37 W/m2 FEW
17:35 -18 °C -18.7 °C 34384.8 hPa Calm     92% 0 mm WeatherDisplay:10.37 W/m2 FEW
17:40 -18 °C -18.7 °C 34384.8 hPa Calm     92% 0 mm WeatherDisplay:10.37 W/m2 FEW
17:45 -17.9 °C -18.6 °C 34384.8 hPa Calm     92% 0 mm WeatherDisplay:10.37 W/m2 FEW
17:50 -18 °C -18.7 °C 34384.8 hPa Calm     92% 0 mm WeatherDisplay:10.37 W/m2 FEW
17:55 -18 °C -18.7 °C 34384.8 hPa Calm     92% 0 mm WeatherDisplay:10.37 W/m2 FEW
18:00 -18 °C -18.7 °C 34384.8 hPa Calm     92% 0 mm WeatherDisplay:10.37 W/m2 FEW
18:05 -18.1 °C -18.7 °C 34384.8 hPa Calm     92% 0 mm WeatherDisplay:10.37 W/m2 FEW
18:10 -18.1 °C -18.7 °C 34384.8 hPa Calm     92% 0 mm WeatherDisplay:10.37 W/m2 FEW
18:15 -18.2 °C -18.8 °C 34371.3 hPa Calm     92% 0 mm WeatherDisplay:10.37 W/m2 FEW
18:20 -18.2 °C -18.8 °C 34384.8 hPa Calm     92% 0 mm WeatherDisplay:10.37 W/m2 FEW
18:25 -18.2 °C -18.8 °C 34384.8 hPa Calm     92% 0 mm WeatherDisplay:10.37 W/m2 FEW
18:30 -18.2 °C -18.8 °C 34384.8 hPa Calm     92% 0 mm WeatherDisplay:10.37 W/m2 FEW
18:35 -18.2 °C -18.8 °C 34384.8 hPa Calm     92% 0 mm WeatherDisplay:10.37 W/m2 FEW
18:40 -18.2 °C -18.8 °C 34371.3 hPa Calm     92% 0 mm WeatherDisplay:10.37 W/m2 FEW
18:45 -18.2 °C -18.8 °C 34371.3 hPa Calm     92% 0 mm WeatherDisplay:10.37 W/m2 FEW
18:50 -18.2 °C -18.8 °C 34371.3 hPa Calm     92% 0 mm WeatherDisplay:10.37 W/m2 FEW
18:55 -18.2 °C -18.8 °C 34371.3 hPa Calm     92% 0 mm WeatherDisplay:10.37 W/m2 FEW
19:00 -18.2 °C -18.8 °C 34371.3 hPa Calm     92% 0 mm WeatherDisplay:10.37 W/m2 FEW
19:06 -18.3 °C -18.9 °C 34371.3 hPa Calm     92% 0 mm WeatherDisplay:10.37 W/m2 FEW
19:11 -18.3 °C -18.9 °C 34371.3 hPa Calm     92% 0 mm WeatherDisplay:10.37 W/m2 FEW
19:16 -18.4 °C -19 °C 34371.3 hPa Calm     92% 0 mm WeatherDisplay:10.37 W/m2 FEW
19:21 -18.4 °C -19.1 °C 34371.3 hPa Calm     92% 0 mm WeatherDisplay:10.37 W/m2 FEW
19:26 -18.4 °C -19.1 °C 34371.3 hPa Calm     92% 0 mm WeatherDisplay:10.37 W/m2 FEW
19:31 -18.4 °C -19.1 °C 34371.3 hPa Calm     92% 0 mm WeatherDisplay:10.37 W/m2 FEW
19:36 -18.5 °C -19.1 °C 34371.3 hPa Calm     92% 0 mm WeatherDisplay:10.37 W/m2 FEW
19:41 -18.5 °C -19.1 °C 34371.3 hPa Calm     93% 0 mm WeatherDisplay:10.37 W/m2 FEW
19:46 -18.6 °C -19.1 °C 34371.3 hPa Calm     93% 0 mm WeatherDisplay:10.37 W/m2 FEW
19:51 -18.6 °C -19.1 °C 34371.3 hPa Calm     93% 0 mm WeatherDisplay:10.37 W/m2 FEW
19:56 -18.6 °C -19.2 °C 34371.3 hPa Calm     92% 0 mm WeatherDisplay:10.37 W/m2 FEW
20:01 -18.6 °C -19.2 °C 34361.1 hPa Calm     92% 0 mm WeatherDisplay:10.37 W/m2 FEW
20:06 -18.6 °C -19.2 °C 34361.1 hPa Calm     92% 0 mm WeatherDisplay:10.37 W/m2 FEW
20:12 -18.6 °C -19.2 °C 34361.1 hPa Calm     92% 0 mm WeatherDisplay:10.37 W/m2 FEW
20:17 -18.6 °C -19.2 °C 34361.1 hPa Calm     92% 0 mm WeatherDisplay:10.37 W/m2 FEW
20:22 -18.6 °C -19.2 °C 34361.1 hPa Calm     92% 0 mm WeatherDisplay:10.37 W/m2 FEW
20:27 -18.6 °C -19.2 °C 34361.1 hPa Calm     92% 0 mm WeatherDisplay:10.37 W/m2 FEW
20:32 -18.7 °C -19.3 °C 34361.1 hPa Calm     92% 0 mm WeatherDisplay:10.37 W/m2 FEW
20:37 -18.7 °C -19.3 °C 34361.1 hPa Calm     92% 0 mm WeatherDisplay:10.37 W/m2 FEW
20:42 -18.7 °C -19.2 °C 34361.1 hPa Calm     93% 0 mm WeatherDisplay:10.37 W/m2 FEW
20:47 -18.7 °C -19.3 °C 34361.1 hPa Calm     93% 0 mm WeatherDisplay:10.37 W/m2 FEW
20:52 -18.7 °C -19.3 °C 34361.1 hPa Calm     93% 0 mm WeatherDisplay:10.37 W/m2 FEW
20:57 -18.8 °C -19.4 °C 34361.1 hPa Calm     92% 0 mm WeatherDisplay:10.37 W/m2 FEW
21:02 -18.8 °C -19.4 °C 34361.1 hPa Calm     92% 0 mm WeatherDisplay:10.37 W/m2 FEW
21:07 -18.8 °C -19.4 °C 34347.6 hPa Calm     93% 0 mm WeatherDisplay:10.37 W/m2 FEW
21:12 -18.8 °C -19.4 °C 34347.6 hPa Calm     93% 0 mm WeatherDisplay:10.37 W/m2 FEW
21:18 -18.8 °C -19.4 °C 34347.6 hPa Calm     93% 0 mm WeatherDisplay:10.37 W/m2 FEW
21:23 -18.8 °C -19.4 °C 34347.6 hPa Calm     93% 0 mm WeatherDisplay:10.37 W/m2 FEW
21:28 -18.8 °C -19.4 °C 34347.6 hPa Calm     93% 0 mm WeatherDisplay:10.37 W/m2 FEW
21:33 -18.8 °C -19.4 °C 34347.6 hPa Calm     93% 0 mm WeatherDisplay:10.37 W/m2 FEW
21:38 -18.8 °C -19.4 °C 34347.6 hPa Calm     93% 0 mm WeatherDisplay:10.37 W/m2 FEW
21:43 -18.8 °C -19.4 °C 34347.6 hPa Calm     93% 0 mm WeatherDisplay:10.37 W/m2 FEW
21:48 -18.8 °C -19.4 °C 34347.6 hPa Calm     93% 0 mm WeatherDisplay:10.37 W/m2 FEW
21:53 -18.8 °C -19.4 °C 34347.6 hPa Calm     93% 0 mm WeatherDisplay:10.37 W/m2 FEW
21:58 -18.9 °C -19.4 °C 34347.6 hPa Calm     93% 0 mm WeatherDisplay:10.37 W/m2 FEW
22:03 -18.9 °C -19.5 °C 34347.6 hPa Calm     92% 0 mm WeatherDisplay:10.37 W/m2 FEW
22:08 -18.9 °C -19.6 °C 34347.6 hPa Calm     92% 0 mm WeatherDisplay:10.37 W/m2 FEW
22:13 -18.9 °C -19.6 °C 34347.6 hPa Calm     92% 0 mm WeatherDisplay:10.37 W/m2 FEW
22:18 -19 °C -19.6 °C 34347.6 hPa Calm     92% 0 mm WeatherDisplay:10.37 W/m2 FEW
22:23 -19 °C -19.6 °C 34337.4 hPa Calm     93% 0 mm WeatherDisplay:10.37 W/m2 FEW
22:28 -19.1 °C -19.6 °C 34347.6 hPa Calm     93% 0 mm WeatherDisplay:10.37 W/m2 FEW
22:33 -19.1 °C -19.6 °C 34337.4 hPa Calm     93% 0 mm WeatherDisplay:10.37 W/m2 FEW
22:38 -19.1 °C -19.6 °C 34337.4 hPa Calm     93% 0 mm WeatherDisplay:10.37 W/m2 FEW
22:43 -19.1 °C -19.6 °C 34337.4 hPa Calm     93% 0 mm WeatherDisplay:10.37 W/m2 FEW
22:48 -19.1 °C -19.6 °C 34337.4 hPa Calm     93% 0 mm WeatherDisplay:10.37 W/m2 FEW
22:53 -19 °C -19.6 °C 34347.6 hPa Calm     93% 0 mm WeatherDisplay:10.37 W/m2 FEW
22:58 -18.9 °C -19.4 °C 34347.6 hPa Calm     93% 0 mm WeatherDisplay:10.37 W/m2 FEW
23:03 -18.8 °C -19.4 °C 34347.6 hPa Calm     92% 0 mm WeatherDisplay:10.37 W/m2 FEW
23:08 -18.7 °C -19.3 °C 34347.6 hPa NW 0.3 km/h 10.3 km/h 92% 0 mm WeatherDisplay:10.37 W/m2 FEW
23:13 -18.6 °C -19.2 °C 34337.4 hPa Calm   3.1 km/h 92% 0 mm WeatherDisplay:10.37 W/m2 FEW
23:18 -18.5 °C -19.1 °C 34337.4 hPa WSW 1.6 km/h 9 km/h 92% 0 mm WeatherDisplay:10.37 W/m2 FEW
23:23 -18.4 °C -19.1 °C 34337.4 hPa Calm     92% 0 mm WeatherDisplay:10.37 W/m2 FEW
23:28 -18.3 °C -18.9 °C 34337.4 hPa Calm     92% 0 mm WeatherDisplay:10.37 W/m2 FEW
23:33 -18.3 °C -18.9 °C 34347.6 hPa Calm     92% 0 mm WeatherDisplay:10.37 W/m2 FEW
23:38 -18.3 °C -18.9 °C 34337.4 hPa Calm     92% 0 mm WeatherDisplay:10.37 W/m2 FEW
23:43 -18.3 °C -18.9 °C 34337.4 hPa Calm     92% 0 mm WeatherDisplay:10.37 W/m2 FEW
23:48 -18.3 °C -18.9 °C 34337.4 hPa WSW 1.6 km/h 9 km/h 92% 0 mm WeatherDisplay:10.37 W/m2 FEW
23:53 -18.2 °C -18.8 °C 34337.4 hPa SW 1 km/h 9 km/h 92% 0 mm WeatherDisplay:10.37 W/m2 FEW
23:55 -18.2 °C -18.8 °C 34337.4 hPa WSW 0.3 km/h   92% 0 mm WeatherDisplay:10.37 W/m2 FEW
Tuulensuunkaari, Veikkola, Suomi
Compliments of Weather Underground - 2.75 mb